Time;durP1;ratioP1;P1;durP2;ratioP2;P2;SDS_P1;SDS_P2;PMS_P1;PMS_P2;Temp;Humidity;BMP_temperature;BMP_pressure;BME280_temperature;BME280_humidity;BME280_pressure;Samples;Min_cycle;Max_cycle;Signal;HPM_P1;HPM_P2
2022/01/21 00:00:29;;;;;;;16.63;3.83;;;;;;;1.83;76.31;103175.69;3579193;40;20065;-64
2022/01/21 00:02:55;;;;;;;18.20;3.65;;;;;;;1.87;76.26;103188.09;3574830;40;20366;-64
2022/01/21 00:05:23;;;;;;;17.83;4.05;;;;;;;1.84;76.94;103188.09;3575385;40;20065;-64
2022/01/21 00:07:49;;;;;;;18.85;4.18;;;;;;;1.80;76.95;103194.22;3575892;40;20060;-64
2022/01/21 00:10:14;;;;;;;18.73;3.63;;;;;;;1.77;76.95;103196.81;3579870;40;20048;-64
2022/01/21 00:12:40;;;;;;;18.02;4.10;;;;;;;1.50;77.64;103160.25;3579466;40;20399;-64
2022/01/21 00:15:08;;;;;;;17.15;4.05;;;;;;;1.65;77.12;103189.63;3581023;40;20084;-64
2022/01/21 00:17:34;;;;;;;16.55;4.43;;;;;;;1.66;77.43;103193.16;3581598;40;20061;-65
2022/01/21 00:30:58;;;;;;;15.63;3.65;;;;;;;1.60;78.58;103178.06;3576263;40;20134;-65
2022/01/21 00:33:24;;;;;;;14.05;3.55;;;;;;;1.60;77.95;103178.94;3576222;40;20056;-65
2022/01/21 00:35:50;;;;;;;18.88;3.95;;;;;;;1.63;78.75;103194.88;3566261;40;20049;-65
2022/01/21 00:38:16;;;;;;;11.13;4.00;;;;;;;1.41;77.93;103139.81;3576746;40;20299;-65
2022/01/21 00:40:41;;;;;;;18.88;3.88;;;;;;;1.57;78.40;103163.00;3579168;40;20096;-65
2022/01/21 00:43:19;;;;;;;18.70;4.00;;;;;;;1.58;78.41;103167.41;3582894;40;20049;-66
2022/01/21 00:45:45;;;;;;;11.20;3.30;;;;;;;1.58;78.00;103166.53;3578700;40;20060;-65
2022/01/21 00:48:11;;;;;;;15.38;3.35;;;;;;;1.46;78.21;103161.06;3579120;40;20453;-65
2022/01/21 00:50:37;;;;;;;17.48;3.53;;;;;;;1.51;77.91;103168.22;3580861;40;20052;-65
2022/01/21 00:53:03;;;;;;;16.80;3.65;;;;;;;1.57;78.25;103181.56;3579337;40;20398;-65
2022/01/21 00:55:29;;;;;;;12.60;3.50;;;;;;;1.52;78.24;103177.06;3580597;40;20092;-65
2022/01/21 00:57:54;;;;;;;18.60;4.03;;;;;;;1.55;79.01;103193.88;3579282;40;20137;-65
2022/01/21 01:00:20;;;;;;;20.42;3.47;;;;;;;1.55;78.70;103191.22;3579864;40;20061;-65
2022/01/21 01:02:46;;;;;;;18.20;3.28;;;;;;;1.55;78.72;103193.00;3580094;40;20044;-65
2022/01/21 01:05:14;;;;;;;14.68;3.15;;;;;;;1.54;78.63;103200.06;3579025;40;20049;-65
2022/01/21 01:07:39;;;;;;;18.42;3.97;;;;;;;1.56;78.30;103208.06;3578652;40;20053;-65
2022/01/21 01:10:11;;;;;;;12.60;2.95;;;;;;;1.55;77.68;103203.59;3579478;40;20044;-65
2022/01/21 01:12:57;;;;;;;14.13;2.97;;;;;;;1.05;77.74;103119.91;3576558;40;20041;-65
2022/01/21 01:20:52;;;;;;;;;;;;;;;1.27;77.61;103158.19;3576309;40;20134;-65
2022/01/21 01:28:33;;;;;;;16.75;3.15;;;;;;;1.25;77.95;103172.28;3577908;40;20299;-65
2022/01/21 01:30:59;;;;;;;16.65;3.22;;;;;;;1.30;77.57;103179.44;3575701;40;20071;-65
2022/01/21 01:33:33;;;;;;;14.73;2.88;;;;;;;1.29;78.03;103187.34;3575906;40;20080;-65
2022/01/21 01:35:59;;;;;;;12.10;3.47;;;;;;;1.22;78.47;103180.19;3575680;40;20380;-65
2022/01/21 01:41:12;;;;;;;15.02;3.10;;;;;;;1.21;77.84;103178.41;3576182;40;20049;-66
2022/01/21 01:49:33;;;;;;;13.90;3.85;;;;;;;1.10;79.17;103155.28;3578413;40;20067;-65
2022/01/21 01:52:01;;;;;;;14.57;2.45;;;;;;;1.23;78.97;103171.34;3575620;40;20084;-66
2022/01/21 01:54:30;;;;;;;16.92;3.28;;;;;;;1.26;79.60;103179.34;3576049;40;20122;-65
2022/01/21 01:56:58;;;;;;;17.08;3.00;;;;;;;1.27;79.27;103173.16;3576584;40;20068;-65
2022/01/21 01:59:26;;;;;;;10.68;3.28;;;;;;;1.26;78.98;103166.97;3579302;40;20147;-65
2022/01/21 02:02:15;;;;;;;14.45;3.33;;;;;;;1.32;79.40;103176.78;3579055;40;20048;-65
2022/01/21 02:04:43;;;;;;;16.45;3.67;;;;;;;1.34;78.74;103164.47;3578674;40;20075;-64
2022/01/21 02:07:10;;;;;;;10.30;2.42;;;;;;;1.38;78.76;103171.56;3580253;40;20056;-65
2022/01/21 02:09:37;;;;;;;14.88;2.85;;;;;;;1.41;78.37;103168.09;3577812;40;20053;-65
2022/01/21 02:12:04;;;;;;;17.42;2.95;;;;;;;1.43;78.79;103172.53;3578675;40;20055;-65
2022/01/21 02:14:36;;;;;;;16.23;2.80;;;;;;;1.44;78.01;103170.78;3578637;40;20052;-65
2022/01/21 02:21:27;;;;;;;12.80;2.50;;;;;;;1.42;79.04;103173.38;3579852;40;20380;-65
2022/01/21 02:22:48;;;;;;;10.90;2.58;;;;;;;1.38;78.83;103171.56;3578409;40;20114;-65
2022/01/21 02:25:19;;;;;;;8.77;2.78;;;;;;;1.33;78.04;103152.97;3577417;40;20055;-65
2022/01/21 02:27:50;;;;;;;15.82;3.17;;;;;;;1.39;78.06;103171.56;3577349;40;20058;-64
2022/01/21 02:30:19;;;;;;;15.95;3.33;;;;;;;1.42;78.67;103169.84;3580610;40;20060;-64
2022/01/21 02:32:52;;;;;;;10.73;2.95;;;;;;;1.40;78.61;103169.84;3576956;40;20290;-64
2022/01/21 02:35:19;;;;;;;12.40;3.13;;;;;;;1.28;78.38;103153.78;3575522;40;20059;-65
2022/01/21 02:37:46;;;;;;;15.05;2.78;;;;;;;1.38;78.62;103174.22;3579593;40;20123;-64
2022/01/21 02:40:15;;;;;;;16.85;3.20;;;;;;;1.35;77.60;103167.13;3575466;40;20059;-65
2022/01/21 02:42:42;;;;;;;15.00;2.80;;;;;;;1.12;77.59;103128.81;3580396;40;20095;-65
2022/01/21 02:45:13;;;;;;;13.32;2.47;;;;;;;1.27;78.69;103151.97;3574776;40;20088;-64
2022/01/21 02:47:39;;;;;;;12.48;2.50;;;;;;;1.22;78.26;103143.97;3575260;40;20061;-64
2022/01/21 02:50:05;;;;;;;15.45;2.70;;;;;;;1.32;77.54;103168.84;3578674;40;20480;-65
2022/01/21 02:52:40;;;;;;;16.33;2.63;;;;;;;1.34;77.85;103180.34;3565883;40;20059;-64
2022/01/21 02:55:08;;;;;;;12.23;2.85;;;;;;;1.06;77.71;103126.97;3575969;40;20126;-64
2022/01/21 02:57:34;;;;;;;24.80;3.33;;;;;;;1.28;77.50;103177.63;3579534;40;20056;-64
2022/01/21 02:59:59;;;;;;;16.42;2.92;;;;;;;1.29;78.44;103187.34;3576627;40;20056;-64
2022/01/21 03:02:25;;;;;;;17.52;2.97;;;;;;;1.22;77.92;103180.19;3576614;40;20048;-65
2022/01/21 03:05:05;;;;;;;12.75;2.75;;;;;;;1.25;77.95;103185.53;3575819;40;20052;-64
2022/01/21 03:07:31;;;;;;;17.55;3.05;;;;;;;1.04;77.89;103149.88;3576295;40;20375;-63
2022/01/21 03:09:56;;;;;;;14.90;2.88;;;;;;;1.26;78.35;103187.28;3575035;40;20052;-63
2022/01/21 03:12:22;;;;;;;15.52;3.25;;;;;;;1.15;77.66;103173.91;3575224;40;20061;-63
2022/01/21 03:14:48;;;;;;;13.30;2.72;;;;;;;1.04;77.70;103154.28;3578152;40;20060;-63
2022/01/21 03:17:14;;;;;;;10.35;3.03;;;;;;;1.19;78.47;103188.97;3581342;40;20052;-63
2022/01/21 03:19:39;;;;;;;14.98;3.08;;;;;;;1.13;77.28;103179.16;3577641;40;20059;-63
2022/01/21 03:22:05;;;;;;;12.27;2.63;;;;;;;1.16;77.27;103192.44;3578180;40;20060;-63
2022/01/21 03:24:31;;;;;;;10.07;2.58;;;;;;;1.11;77.70;103188.84;3578385;40;20076;-63
2022/01/21 03:26:57;;;;;;;10.38;2.80;;;;;;;1.15;78.73;103195.97;3577975;40;20064;-63
2022/01/21 03:29:23;;;;;;;16.25;2.78;;;;;;;1.09;79.04;103180.00;3578730;40;20052;-63
2022/01/21 03:31:48;;;;;;;15.50;3.05;;;;;;;0.69;78.70;103114.91;3578427;40;20084;-67
2022/01/21 03:34:14;;;;;;;14.48;2.83;;;;;;;1.17;79.63;103203.94;3577873;40;20047;-62
2022/01/21 03:36:40;;;;;;;14.63;3.00;;;;;;;1.12;78.80;103195.03;3579195;40;20438;-62
2022/01/21 03:39:06;;;;;;;15.02;3.13;;;;;;;1.12;78.88;103195.94;3579960;40;20066;-62
2022/01/21 03:41:32;;;;;;;14.07;3.33;;;;;;;1.18;79.40;103200.44;3580044;40;20052;-63
2022/01/21 03:43:58;;;;;;;14.45;3.50;;;;;;;1.21;79.60;103205.78;3580178;40;20064;-63
2022/01/21 03:46:24;;;;;;;15.77;3.08;;;;;;;1.20;79.07;103208.38;3577263;40;20063;-62
2022/01/21 03:48:50;;;;;;;19.33;3.65;;;;;;;1.15;79.84;103188.03;3576728;40;20068;-63
2022/01/21 03:51:19;;;;;;;16.65;3.78;;;;;;;1.19;79.20;103193.38;3574770;40;20055;-63
2022/01/21 03:53:46;;;;;;;15.40;3.15;;;;;;;1.23;78.94;103197.84;3580228;40;20055;-62
2022/01/21 03:56:16;;;;;;;11.25;2.72;;;;;;;0.96;79.31;103162.13;3577716;40;20048;-63
2022/01/21 03:58:43;;;;;;;14.10;2.60;;;;;;;0.94;78.42;103158.56;3578131;40;20140;-62
2022/01/21 04:01:09;;;;;;;12.05;2.88;;;;;;;1.18;78.53;103207.50;3576705;40;20061;-63
2022/01/21 04:03:34;;;;;;;13.23;2.53;;;;;;;1.20;79.24;103203.97;3579407;40;20051;-63
2022/01/21 04:06:01;;;;;;;12.32;2.80;;;;;;;1.20;79.27;103211.03;3576988;40;20085;-63
2022/01/21 04:08:26;;;;;;;10.23;2.70;;;;;;;1.18;79.44;103210.16;3576266;40;20303;-63
2022/01/21 04:10:52;;;;;;;12.63;3.05;;;;;;;1.11;78.14;103195.88;3575734;40;20056;-62
2022/01/21 04:13:20;;;;;;;11.18;2.67;;;;;;;1.15;78.37;103205.69;3576527;40;20059;-63
2022/01/21 04:15:53;;;;;;;12.75;2.95;;;;;;;1.10;78.56;103200.28;3579046;40;20048;-63
2022/01/21 04:18:20;;;;;;;14.30;2.67;;;;;;;1.11;79.28;103194.16;3574470;40;20089;-63
2022/01/21 04:20:49;;;;;;;14.82;2.70;;;;;;;1.13;79.81;103203.00;3576847;40;20245;-63
2022/01/21 04:23:18;;;;;;;14.75;3.70;;;;;;;1.06;79.80;103184.34;3576389;40;20049;-63
2022/01/21 04:25:45;;;;;;;13.73;4.60;;;;;;;1.13;78.91;103191.50;3576338;40;20473;-63
2022/01/21 04:28:11;;;;;;;13.43;4.65;;;;;;;1.13;79.28;103189.75;3575861;40;20488;-63
2022/01/21 04:30:37;;;;;;;15.95;4.53;;;;;;;1.08;80.28;103183.50;3577142;40;20064;-63
2022/01/21 04:33:05;;;;;;;18.10;3.72;;;;;;;1.07;79.06;103181.72;3576349;40;20057;-63
2022/01/21 04:35:33;;;;;;;12.73;4.43;;;;;;;1.19;79.46;103196.91;3576560;40;20061;-63
2022/01/21 04:38:03;;;;;;;16.45;3.58;;;;;;;1.19;79.86;103196.03;3578975;40;20056;-63
2022/01/21 04:40:34;;;;;;;7.22;3.13;;;;;;;1.16;79.42;103195.09;3577156;40;20049;-63
2022/01/21 04:48:31;;;;;;;10.65;3.28;;;;;;;1.11;78.38;103202.09;3580494;40;20397;-63
2022/01/21 04:51:00;;;;;;;11.65;3.05;;;;;;;1.10;78.75;103197.66;3579401;40;20072;-63
2022/01/21 04:53:28;;;;;;;14.73;3.20;;;;;;;1.10;78.57;103197.66;3580049;40;20095;-65
2022/01/21 04:55:54;;;;;;;14.30;4.32;;;;;;;1.05;79.14;103191.41;3578816;40;20391;-63
2022/01/21 04:58:21;;;;;;;15.93;5.15;;;;;;;1.01;78.73;103181.59;3579446;40;20057;-63
2022/01/21 05:00:47;;;;;;;15.55;5.25;;;;;;;1.06;79.50;103195.81;3579244;40;20113;-63
2022/01/21 05:03:13;;;;;;;19.25;5.68;;;;;;;0.87;79.64;103165.50;3577458;40;20049;-64
2022/01/21 05:05:39;;;;;;;19.40;7.63;;;;;;;1.00;78.94;103177.19;3575362;40;20402;-63
2022/01/21 05:08:09;;;;;;;24.48;7.63;;;;;;;1.01;79.12;103180.72;3576128;40;20052;-63
2022/01/21 05:10:36;;;;;;;21.08;7.57;;;;;;;1.02;79.04;103180.75;3576568;40;20052;-63
2022/01/21 05:13:03;;;;;;;22.58;5.22;;;;;;;1.01;79.00;103176.31;3575897;40;20077;-63
2022/01/21 05:15:57;;;;;;;16.08;3.80;;;;;;;0.98;80.26;103176.25;3578154;40;20100;-63
2022/01/21 05:18:14;;;;;;;9.20;3.40;;;;;;;0.95;79.40;103170.03;3575104;40;20405;-63
2022/01/21 05:20:40;;;;;;;18.27;3.80;;;;;;;0.97;79.93;103176.25;3576302;40;20064;-63
2022/01/21 05:23:06;;;;;;;18.77;4.53;;;;;;;1.00;80.33;103179.84;3576052;40;20737;-68
2022/01/21 05:25:31;;;;;;;12.52;4.30;;;;;;;1.00;79.99;103193.09;3579029;40;20126;-63
2022/01/21 05:27:59;;;;;;;17.52;3.65;;;;;;;1.01;80.56;103186.91;3579964;40;20121;-62
2022/01/21 05:30:25;;;;;;;15.07;3.65;;;;;;;0.92;79.58;103181.50;3581502;40;20041;-63
2022/01/21 05:32:50;;;;;;;8.82;3.50;;;;;;;1.02;79.42;103187.81;3585194;40;20117;-63
2022/01/21 05:35:17;;;;;;;17.05;4.55;;;;;;;0.62;80.52;103124.53;3570976;40;20379;-63
2022/01/21 05:37:43;;;;;;;12.50;3.63;;;;;;;0.92;79.34;103178.84;3580420;40;20060;-62
2022/01/21 05:40:17;;;;;;;15.57;4.22;;;;;;;1.03;80.61;103200.19;3579944;40;20052;-63
2022/01/21 05:42:43;;;;;;;17.00;5.97;;;;;;;0.90;80.69;103184.09;3581802;40;20048;-64
2022/01/21 05:47:54;;;;;;;17.13;4.20;;;;;;;1.03;79.30;103201.06;3577016;40;20060;-63
2022/01/21 05:50:20;;;;;;;12.07;3.47;;;;;;;0.95;79.99;103186.81;3577612;40;20543;-62
2022/01/21 05:52:47;;;;;;;14.07;3.95;;;;;;;1.02;79.63;103188.72;3584031;40;20384;-62
2022/01/21 05:55:14;;;;;;;12.75;4.10;;;;;;;1.04;81.39;103192.25;3576220;40;20048;-62
2022/01/21 05:57:40;;;;;;;12.55;4.32;;;;;;;1.01;80.35;103192.19;3580678;40;20050;-63
2022/01/21 06:00:08;;;;;;;15.43;4.65;;;;;;;1.04;81.43;103197.56;3579238;40;20136;-62
2022/01/21 06:02:35;;;;;;;13.05;4.80;;;;;;;1.08;81.08;103203.78;3579145;40;20059;-61
2022/01/21 06:05:00;;;;;;;11.43;3.97;;;;;;;1.10;80.08;103207.34;3580681;40;20048;-62
2022/01/21 06:07:26;;;;;;;13.23;4.38;;;;;;;1.10;80.48;103208.25;3575743;40;20052;-62
2022/01/21 06:09:52;;;;;;;17.48;4.60;;;;;;;0.98;80.08;103188.63;3575139;40;20282;-62
2022/01/21 06:12:17;;;;;;;12.82;4.28;;;;;;;0.91;79.37;103187.63;3577922;40;20118;-62
2022/01/21 06:14:43;;;;;;;21.42;5.15;;;;;;;1.05;79.36;103214.34;3579352;40;20040;-62
2022/01/21 06:17:12;;;;;;;10.27;3.70;;;;;;;1.01;80.42;103212.50;3581485;40;20436;-62
2022/01/21 06:19:38;;;;;;;14.25;3.95;;;;;;;0.92;79.47;103205.31;3580011;40;20055;-62
2022/01/21 06:22:05;;;;;;;13.43;4.53;;;;;;;0.98;79.32;103226.56;3580532;40;20045;-61
2022/01/21 06:24:30;;;;;;;15.98;4.13;;;;;;;0.96;80.34;103220.38;3581183;40;20041;-63
2022/01/21 06:27:00;;;;;;;21.52;5.20;;;;;;;0.93;80.91;103204.44;3581054;40;20047;-62
2022/01/21 06:29:26;;;;;;;19.65;5.30;;;;;;;0.95;81.30;103213.28;3581013;40;20051;-62
2022/01/21 06:31:51;;;;;;;16.05;5.47;;;;;;;1.03;81.38;103214.31;3579570;40;20048;-61
2022/01/21 06:34:17;;;;;;;14.07;5.30;;;;;;;1.04;81.70;103216.09;3581171;40;20450;-63
2022/01/21 06:36:43;;;;;;;12.40;5.65;;;;;;;1.05;80.79;103231.13;3580420;40;20045;-62
2022/01/21 06:39:08;;;;;;;19.20;6.13;;;;;;;1.10;81.72;103228.53;3577670;40;20717;-62
2022/01/21 06:41:34;;;;;;;13.73;6.32;;;;;;;1.16;81.40;103234.84;3575217;40;20060;-62
2022/01/21 06:44:01;;;;;;;19.88;6.25;;;;;;;1.14;82.26;103228.63;3575535;40;20084;-62
2022/01/21 06:46:26;;;;;;;17.55;6.35;;;;;;;1.19;82.56;103238.41;3580056;40;20505;-62
2022/01/21 06:48:52;;;;;;;15.52;6.95;;;;;;;1.22;82.42;103233.16;3578883;40;20051;-62
2022/01/21 06:51:18;;;;;;;12.65;6.50;;;;;;;1.36;82.01;103242.19;3575681;40;20057;-62
2022/01/21 06:53:43;;;;;;;13.85;6.63;;;;;;;1.50;82.38;103258.31;3575368;40;20303;-62
2022/01/21 06:56:09;;;;;;;17.17;6.50;;;;;;;1.48;81.30;103238.84;3575926;40;20068;-62
2022/01/21 06:58:34;;;;;;;17.70;7.03;;;;;;;1.59;81.40;103247.88;3581734;40;20403;-62
2022/01/21 07:01:00;;;;;;;13.27;6.80;;;;;;;1.67;81.76;103256.78;3578105;40;20051;-62
2022/01/21 07:03:26;;;;;;;12.60;6.18;;;;;;;1.70;82.01;103248.00;3575178;40;20253;-62
2022/01/21 07:05:51;;;;;;;15.68;6.93;;;;;;;1.83;81.53;103263.22;3575573;40;20079;-62
2022/01/21 07:08:17;;;;;;;15.52;6.57;;;;;;;1.85;80.44;103253.53;3580629;40;20045;-62
2022/01/21 07:10:45;;;;;;;14.38;6.97;;;;;;;1.94;80.65;103274.88;3575660;40;20060;-62
2022/01/21 07:13:12;;;;;;;18.27;7.20;;;;;;;2.00;81.17;103282.91;3575459;40;20377;-62
2022/01/21 07:15:37;;;;;;;18.90;6.95;;;;;;;2.01;81.09;103276.72;3579054;40;20125;-62
2022/01/21 07:18:03;;;;;;;16.13;6.90;;;;;;;2.09;80.65;103280.38;3575555;40;20052;-62
2022/01/21 07:20:29;;;;;;;11.48;7.20;;;;;;;1.80;80.60;103216.31;3575447;40;20391;-61
2022/01/21 07:22:55;;;;;;;18.75;7.38;;;;;;;2.12;81.58;103262.69;3574272;40;20320;-61
2022/01/21 07:25:22;;;;;;;14.68;7.22;;;;;;;2.13;81.13;103265.38;3575185;40;20144;-63
2022/01/21 07:27:47;;;;;;;17.52;6.82;;;;;;;2.18;80.34;103266.31;3573595;40;20055;-62
2022/01/21 07:30:14;;;;;;;17.58;7.53;;;;;;;2.16;80.49;103251.22;3574397;40;20060;-62
2022/01/21 07:32:43;;;;;;;13.98;7.60;;;;;;;2.17;80.47;103250.38;3578960;40;20331;-63
2022/01/21 07:35:10;;;;;;;19.30;7.93;;;;;;;2.36;80.73;103289.53;3579148;40;20064;-63
2022/01/21 07:37:38;;;;;;;11.80;7.68;;;;;;;2.38;80.07;103293.13;3580952;40;20080;-62
2022/01/21 07:40:08;;;;;;;12.98;6.93;;;;;;;2.33;79.98;103290.38;3579488;40;20411;-63
2022/01/21 07:42:34;;;;;;;10.98;6.68;;;;;;;2.32;80.08;103285.06;3581382;40;20064;-62
2022/01/21 07:45:00;;;;;;;13.10;6.78;;;;;;;2.37;80.01;103288.66;3579459;40;20422;-63
2022/01/21 07:47:25;;;;;;;17.42;7.68;;;;;;;2.45;80.19;103300.25;3579989;40;20107;-62
2022/01/21 07:49:51;;;;;;;15.98;7.13;;;;;;;2.47;80.03;103282.56;3579922;40;20056;-66
2022/01/21 07:52:17;;;;;;;11.32;6.93;;;;;;;2.49;80.12;103288.81;3579708;40;20057;-63
2022/01/21 07:54:43;;;;;;;14.93;6.72;;;;;;;2.45;80.27;103294.06;3581086;40;20060;-63
2022/01/21 07:57:10;;;;;;;18.90;7.47;;;;;;;2.46;79.99;103296.72;3577226;40;20077;-63
2022/01/21 07:59:36;;;;;;;14.95;6.82;;;;;;;2.52;79.59;103301.22;3580887;40;20052;-63
2022/01/21 08:02:05;;;;;;;15.73;7.40;;;;;;;2.49;79.37;103301.19;3579661;40;20052;-62
2022/01/21 08:04:30;;;;;;;12.60;6.90;;;;;;;2.46;80.16;103282.56;3579150;40;20052;-63
2022/01/21 08:06:57;;;;;;;21.90;7.22;;;;;;;2.52;80.11;103275.56;3575069;40;20060;-62
2022/01/21 08:09:24;;;;;;;14.70;7.03;;;;;;;2.53;79.93;103265.81;3578067;40;20051;-63
2022/01/21 08:11:52;;;;;;;14.57;6.20;;;;;;;2.48;79.15;103268.44;3580499;40;20044;-62
2022/01/21 08:14:18;;;;;;;12.38;7.07;;;;;;;2.49;79.83;103270.22;3567355;40;20492;-62
2022/01/21 08:16:43;;;;;;;13.38;7.13;;;;;;;2.43;80.44;103254.22;3579582;40;20040;-63
2022/01/21 08:19:09;;;;;;;13.05;7.15;;;;;;;2.56;79.67;103266.75;3579845;40;20091;-62
2022/01/21 08:21:35;;;;;;;15.50;6.70;;;;;;;2.55;80.00;103270.28;3580236;40;20048;-62
2022/01/21 08:24:00;;;;;;;14.10;6.57;;;;;;;2.62;79.57;103259.72;3578819;40;20406;-63
2022/01/21 08:26:28;;;;;;;8.98;5.93;;;;;;;2.65;79.75;103260.66;3579705;40;20081;-62
2022/01/21 08:28:56;;;;;;;11.48;6.13;;;;;;;2.61;80.16;103257.97;3579700;40;20048;-62
2022/01/21 08:31:23;;;;;;;13.68;6.10;;;;;;;2.69;79.66;103253.59;3578739;40;20064;-63
2022/01/21 08:33:50;;;;;;;12.60;6.50;;;;;;;2.69;79.01;103256.25;3577845;40;20044;-62
2022/01/21 08:36:19;;;;;;;16.40;5.78;;;;;;;2.63;79.54;103248.22;3578100;40;20106;-62
2022/01/21 08:38:44;;;;;;;16.30;6.07;;;;;;;2.63;79.75;103261.50;3579243;40;20054;-63
2022/01/21 08:41:10;;;;;;;11.75;6.00;;;;;;;2.59;78.63;103259.69;3576774;40;20284;-63
2022/01/21 08:43:37;;;;;;;13.18;6.20;;;;;;;2.71;79.00;103278.41;3576919;40;20045;-63
2022/01/21 08:46:03;;;;;;;16.63;7.32;;;;;;;2.64;79.22;103269.50;3581042;40;20110;-63
2022/01/21 08:48:29;;;;;;;14.80;6.90;;;;;;;2.76;79.20;103284.69;3578724;40;20104;-63
2022/01/21 08:51:00;;;;;;;12.82;6.72;;;;;;;2.75;79.33;103269.59;3577500;40;20053;-62
2022/01/21 08:53:38;;;;;;;12.18;6.60;;;;;;;2.82;79.63;103278.50;3582114;40;20349;-70
2022/01/21 08:56:14;;;;;;;10.98;6.20;;;;;;;2.88;79.14;103279.47;3580978;40;20064;-62
2022/01/21 08:58:42;;;;;;;12.10;6.10;;;;;;;2.97;79.25;103279.56;3578164;40;20335;-66
2022/01/21 09:01:10;;;;;;;14.68;6.35;;;;;;;3.04;78.92;103288.47;3570650;40;20056;-63
2022/01/21 09:03:37;;;;;;;9.40;5.40;;;;;;;3.11;78.70;103270.81;3582047;40;20048;-63
2022/01/21 09:06:04;;;;;;;10.75;5.85;;;;;;;3.21;78.77;103283.31;3579873;40;20086;-63
2022/01/21 09:08:31;;;;;;;17.17;5.60;;;;;;;3.28;79.12;103279.81;3581837;40;20061;-63
2022/01/21 09:11:01;;;;;;;9.23;5.53;;;;;;;3.34;78.43;103265.69;3581303;40;20292;-63
2022/01/21 09:13:30;;;;;;;13.60;4.90;;;;;;;3.40;78.00;103260.44;3581684;40;20056;-64
2022/01/21 09:16:00;;;;;;;9.98;4.65;;;;;;;3.48;78.05;103251.59;3582414;40;20064;-63
2022/01/21 09:18:44;;;;;;;12.45;4.82;;;;;;;3.56;77.61;103248.13;3581947;40;20123;-63
2022/01/21 09:21:09;;;;;;;11.23;4.65;;;;;;;3.61;77.36;103257.00;3580663;40;20048;-63
2022/01/21 09:23:35;;;;;;;12.88;4.80;;;;;;;3.49;77.82;103217.97;3580450;40;20056;-63
2022/01/21 09:26:01;;;;;;;13.40;5.40;;;;;;;3.66;77.87;103239.31;3580774;40;20084;-62
2022/01/21 09:28:26;;;;;;;10.40;4.28;;;;;;;3.70;77.75;103233.13;3576686;40;20171;-62
2022/01/21 09:30:52;;;;;;;9.95;4.10;;;;;;;3.87;77.79;103252.75;3579787;40;20086;-62
2022/01/21 09:33:17;;;;;;;12.75;4.50;;;;;;;3.94;77.50;103249.22;3578979;40;20532;-62
2022/01/21 09:35:43;;;;;;;12.10;4.65;;;;;;;4.04;77.12;103252.81;3581519;40;20399;-62
2022/01/21 09:38:09;;;;;;;8.88;3.90;;;;;;;4.01;77.13;103241.28;3580294;40;20053;-63
2022/01/21 09:40:44;;;;;;;12.15;4.18;;;;;;;4.22;76.97;103256.41;3579852;40;20044;-63
2022/01/21 09:43:10;;;;;;;10.45;3.35;;;;;;;4.36;76.20;103276.88;3580431;40;20056;-62
2022/01/21 09:45:38;;;;;;;11.02;4.10;;;;;;;4.43;76.19;103254.72;3578347;40;20055;-63
2022/01/21 09:48:06;;;;;;;11.80;4.30;;;;;;;4.61;76.27;103261.88;3578105;40;20060;-64
2022/01/21 09:50:33;;;;;;;13.43;4.93;;;;;;;4.78;75.27;103269.88;3578736;40;20050;-63
2022/01/21 09:53:00;;;;;;;15.68;11.07;;;;;;;4.76;74.86;103239.72;3578701;40;20390;-64
2022/01/21 09:55:26;;;;;;;22.95;9.57;;;;;;;5.10;74.45;103275.25;3577528;40;20060;-64
2022/01/21 09:57:56;;;;;;;23.25;9.52;;;;;;;5.30;73.81;103274.38;3578382;40;20064;-64
2022/01/21 10:00:26;;;;;;;20.25;7.43;;;;;;;5.51;73.27;103278.78;3578589;40;20056;-65
2022/01/21 10:02:54;;;;;;;13.48;5.65;;;;;;;5.72;73.00;103284.09;3578033;40;20138;-63
2022/01/21 10:05:20;;;;;;;9.75;4.82;;;;;;;5.94;71.87;103278.75;3578328;40;20067;-62
2022/01/21 10:07:49;;;;;;;16.42;5.10;;;;;;;6.09;70.81;103289.38;3579559;40;20172;-63
2022/01/21 10:10:16;;;;;;;13.57;4.53;;;;;;;5.84;70.14;103213.78;3577529;40;20056;-62
2022/01/21 10:12:47;;;;;;;11.90;4.55;;;;;;;6.53;69.62;103290.06;3577066;40;20053;-62
2022/01/21 10:15:15;;;;;;;18.25;4.55;;;;;;;6.76;68.95;103303.31;3582064;40;20060;-60
2022/01/21 10:18:11;;;;;;;9.52;3.63;;;;;;;6.95;68.73;103299.63;3579696;40;20063;-62
2022/01/21 10:21:12;;;;;;;14.38;3.90;;;;;;;7.22;67.87;103309.22;3583830;40;20679;-61
2022/01/21 10:23:42;;;;;;;10.48;3.65;;;;;;;7.22;67.36;103294.03;3551018;40;20073;-62
2022/01/21 10:26:12;;;;;;;13.63;3.95;;;;;;;7.38;66.69;103320.66;3558024;40;20072;-62
2022/01/21 10:28:42;;;;;;;15.77;3.65;;;;;;;7.34;67.11;103313.56;3581482;40;20048;-61
2022/01/21 10:31:16;;;;;;;11.40;3.65;;;;;;;7.25;66.61;103314.53;3580463;40;20056;-61
2022/01/21 10:33:52;;;;;;;15.38;4.18;;;;;;;7.10;67.16;103318.19;3581630;40;20370;-61
2022/01/21 10:36:26;;;;;;;17.33;4.10;;;;;;;7.18;67.37;103319.03;3579768;40;20059;-61
2022/01/21 10:39:07;;;;;;;11.98;3.63;;;;;;;7.05;67.41;103245.16;3581009;40;20063;-61
2022/01/21 10:41:34;;;;;;;14.52;4.20;;;;;;;7.77;67.14;103321.19;3579345;40;20315;-61
2022/01/21 10:44:10;;;;;;;9.25;3.22;;;;;;;7.94;65.01;103311.22;3581943;40;20087;-61
2022/01/21 10:46:41;;;;;;;7.70;3.15;;;;;;;7.83;65.38;103291.69;3581480;40;20052;-61
2022/01/21 10:49:11;;;;;;;11.93;2.97;;;;;;;8.03;65.33;103313.78;3575969;40;20072;-61
2022/01/21 10:51:41;;;;;;;15.40;3.33;;;;;;;8.45;65.76;103329.41;3575806;40;20060;-62
2022/01/21 10:54:18;;;;;;;12.43;3.33;;;;;;;8.48;64.85;103322.22;3577523;40;20060;-61
2022/01/21 10:57:10;;;;;;;15.65;2.97;;;;;;;8.33;64.51;103293.78;3571306;40;20048;-61
2022/01/21 11:00:09;;;;;;;9.63;2.80;;;;;;;8.31;64.19;103319.72;3581511;40;20094;-63
2022/01/21 11:02:49;;;;;;;12.20;3.20;;;;;;;8.01;65.04;103283.44;3579558;40;20052;-61
2022/01/21 11:05:21;;;;;;;17.55;3.35;;;;;;;8.15;66.30;103307.41;3577413;40;20049;-63
2022/01/21 11:07:58;;;;;;;11.15;3.30;;;;;;;8.02;65.75;103309.31;3580936;40;20052;-61
2022/01/21 11:10:32;;;;;;;8.98;2.55;;;;;;;7.82;66.61;103311.34;3578393;40;20052;-62
2022/01/21 11:13:13;;;;;;;18.00;3.53;;;;;;;7.67;68.38;103299.91;3575597;40;20295;-61
2022/01/21 11:15:48;;;;;;;11.73;3.42;;;;;;;7.54;69.16;103295.53;3579708;40;20092;-62
2022/01/21 11:18:18;;;;;;;13.02;3.53;;;;;;;7.47;69.56;103287.59;3579424;40;20381;-62
2022/01/21 11:20:49;;;;;;;11.40;3.47;;;;;;;7.37;71.68;103270.75;3580159;40;20122;-62
2022/01/21 11:23:17;;;;;;;9.45;3.38;;;;;;;7.49;70.77;103272.44;3569223;40;20060;-62
2022/01/21 11:25:44;;;;;;;13.48;3.63;;;;;;;7.62;71.54;103264.25;3583291;40;20048;-62
2022/01/21 11:28:12;;;;;;;19.15;4.15;;;;;;;7.73;70.84;103257.88;3577420;40;20068;-63
2022/01/21 11:30:38;;;;;;;15.77;3.80;;;;;;;7.84;70.51;103256.00;3578933;40;20067;-63
2022/01/21 11:33:05;;;;;;;16.23;3.80;;;;;;;7.79;70.12;103248.00;3579596;40;20144;-62
2022/01/21 11:35:31;;;;;;;17.88;3.50;;;;;;;7.76;71.20;103242.66;3581047;40;20358;-62
2022/01/21 11:37:58;;;;;;;12.15;3.83;;;;;;;7.81;71.41;103245.31;3579486;40;20051;-62
2022/01/21 11:40:25;;;;;;;14.43;4.07;;;;;;;7.84;70.70;103254.19;3577815;40;20117;-63
2022/01/21 11:42:53;;;;;;;17.38;3.90;;;;;;;7.78;69.92;103250.69;3580684;40;20044;-61
2022/01/21 11:45:33;;;;;;;14.13;3.35;;;;;;;7.72;70.78;103256.13;3578896;40;20131;-62
2022/01/21 11:50:41;;;;;;;14.45;3.67;;;;;;;7.50;70.66;103245.63;3577583;40;20047;-64
2022/01/21 11:53:07;;;;;;;17.08;4.50;;;;;;;7.52;70.67;103259.00;3579317;40;20063;-62
2022/01/21 11:55:41;;;;;;;20.58;4.90;;;;;;;7.48;70.44;103258.13;3578109;40;20497;-63
2022/01/21 11:58:20;;;;;;;16.90;4.15;;;;;;;7.48;71.24;103251.91;3579282;40;20288;-62
2022/01/21 12:00:52;;;;;;;14.27;4.55;;;;;;;7.45;71.02;103244.78;3579044;40;20044;-62
2022/01/21 12:03:23;;;;;;;16.75;4.78;;;;;;;7.12;70.49;103196.06;3575381;40;20405;-64
2022/01/21 12:05:50;;;;;;;13.57;4.40;;;;;;;7.22;71.37;103219.13;3579333;40;20422;-63
2022/01/21 12:08:49;;;;;;;13.07;4.30;;;;;;;7.36;71.58;103236.88;3572114;40;20045;-63
2022/01/21 12:11:35;;;;;;;10.10;3.67;;;;;;;7.38;71.38;103248.44;3576563;40;20093;-63
2022/01/21 12:14:26;;;;;;;13.35;3.60;;;;;;;7.39;72.05;103243.06;3576758;40;20389;-63
2022/01/21 12:17:00;;;;;;;25.05;8.27;;;;;;;7.33;70.89;103231.56;3578934;40;20064;-63